»·PEaware :: DCM205 KPHX-KSBA

DCM205 :: KPHX-KSBA

FLIGHT INFORMATION

Flight Status: Arrived
Operator:
DotCom
More flights by this operator :: More flights under this callsign
Pilot: Chris S. (2433)
Aircraft: Boeing 747-8
(B748)
More flights by this aircraft type
Origin: KPHX Phoenix Sky Harbor Intl
United States
Destination: KSBA Santa Barbara Mun
United States
More flights between these airports :: More routes between these airports
Route: +KEENS2 HRRBR CURIV J212 PSP PORPS PITBL1
File this flight plan on PilotEdge
Remarks:
Altitude:
(Current/Filed)
34,000ft
Speed:
(Current/Filed)
480kts
Departed: 24-Jun-20 07:32 PM
Arrived: 24-Jun-20 08:41 PM
Distance/Time
Traveled:
394nm/1:09
Distance/Time
To Go:
Arrived

Flight Plot

Page will automatically refresh every two minutes.

Flight plan parsing failed; only flown route is shown


Map Options




Map Legend


Flown Route
Filed Route
Departure Airport
Arrival Airport
Navaid (VOR, NDB)
Fix

Horizontal Profiles

Position Reports

Time Latitude Longitude Heading Altitude Ground
Speed
24-Jun-20 19:09 33.424567 -112.018099 90 1148ft 0kts
24-Jun-20 19:10 33.424567 -112.018099 90 1148ft 0kts
24-Jun-20 19:11 33.424567 -112.018099 90 1148ft 0kts
24-Jun-20 19:12 33.424567 -112.018099 90 1148ft 0kts
24-Jun-20 19:13 33.424567 -112.018099 90 1148ft 0kts
24-Jun-20 19:14 33.424567 -112.018099 90 1148ft 0kts
24-Jun-20 19:15 33.424567 -112.018099 90 1148ft 0kts
24-Jun-20 19:16 33.424567 -112.018099 90 1148ft 0kts
24-Jun-20 19:17 33.424567 -112.018099 90 1148ft 0kts
24-Jun-20 19:18 33.424567 -112.018099 90 1148ft 0kts
24-Jun-20 19:19 33.424567 -112.018099 90 1148ft 0kts
24-Jun-20 19:20 33.424567 -112.018099 90 1148ft 0kts
24-Jun-20 19:21 33.424567 -112.018099 90 1148ft 0kts
24-Jun-20 19:22 33.425579 -112.017061 0 1148ft 12kts
24-Jun-20 19:23 33.427760 -112.015336 89 1148ft 11kts
24-Jun-20 19:24 33.427788 -112.011874 89 1148ft 9kts
24-Jun-20 19:25 33.427740 -112.006956 90 1148ft 17kts
24-Jun-20 19:26 33.429834 -112.004239 63 1148ft 11kts
24-Jun-20 19:27 33.429950 -112.000471 89 1148ft 12kts
24-Jun-20 19:28 33.430000 -111.995180 89 1148ft 11kts
24-Jun-20 19:29 33.430007 -111.994294 89 1148ft 3kts
24-Jun-20 19:30 33.430297 -111.993568 22 1148ft 6kts
24-Jun-20 19:31 33.431010 -112.006190 270 1148ft 139kts
24-Jun-20 19:32 33.429116 -112.067300 259 3359ft 211kts
24-Jun-20 19:33 33.405852 -112.145965 249 5559ft 269kts
24-Jun-20 19:34 33.394787 -112.235368 276 9057ft 288kts
24-Jun-20 19:35 33.411406 -112.337331 278 11096ft 357kts
24-Jun-20 19:36 33.429613 -112.460104 278 14368ft 385kts
24-Jun-20 19:37 33.448379 -112.589520 277 17806ft 403kts
24-Jun-20 19:38 33.451897 -112.726339 270 21016ft 420kts
24-Jun-20 19:39 33.464050 -112.867406 282 23864ft 435kts
24-Jun-20 19:40 33.491929 -113.011300 283 26569ft 448kts
24-Jun-20 19:41 33.519527 -113.158848 283 28880ft 460kts
24-Jun-20 19:42 33.547753 -113.310308 282 31081ft 462kts
24-Jun-20 19:43 33.574860 -113.459591 282 33226ft 456kts
24-Jun-20 19:44 33.602540 -113.608028 283 33721ft 456kts
24-Jun-20 19:45 33.629989 -113.756654 282 33722ft 456kts
24-Jun-20 19:46 33.657184 -113.905862 282 33741ft 456kts
24-Jun-20 19:47 33.684370 -114.054828 282 33720ft 456kts
24-Jun-20 19:48 33.711688 -114.203044 282 33712ft 456kts
24-Jun-20 19:49 33.738754 -114.352315 282 33705ft 456kts
24-Jun-20 19:50 33.765371 -114.501110 282 33692ft 455kts
24-Jun-20 19:51 33.780097 -114.651460 273 33692ft 454kts
24-Jun-20 19:52 33.787846 -114.803286 274 33692ft 453kts
24-Jun-20 19:53 33.796099 -114.954148 274 33695ft 452kts
24-Jun-20 19:54 33.805069 -115.104502 274 33701ft 450kts
24-Jun-20 19:55 33.813206 -115.254748 273 33705ft 449kts
24-Jun-20 19:56 33.820948 -115.405146 273 33710ft 448kts
24-Jun-20 19:57 33.828531 -115.554644 273 33713ft 448kts
24-Jun-20 19:58 33.835812 -115.704013 273 33711ft 447kts
24-Jun-20 19:59 33.842926 -115.853345 273 33702ft 447kts
24-Jun-20 20:00 33.850531 -116.002908 273 33692ft 447kts
24-Jun-20 20:01 33.857788 -116.150728 273 33685ft 447kts
24-Jun-20 20:02 33.864368 -116.299833 273 33728ft 447kts
24-Jun-20 20:03 33.874794 -116.448633 281 33721ft 446kts
24-Jun-20 20:04 33.908986 -116.592420 285 33749ft 446kts
24-Jun-20 20:05 33.943882 -116.735594 285 33860ft 445kts
24-Jun-20 20:06 33.978618 -116.878888 285 33492ft 445kts
24-Jun-20 20:07 34.013530 -117.023128 284 32491ft 449kts
24-Jun-20 20:08 34.048157 -117.168166 284 31492ft 452kts
24-Jun-20 20:09 34.082838 -117.314424 284 30492ft 455kts
24-Jun-20 20:10 34.117478 -117.461385 284 29898ft 458kts
24-Jun-20 20:11 34.152284 -117.609922 284 29912ft 459kts
24-Jun-20 20:12 34.186827 -117.758220 284 29923ft 459kts
24-Jun-20 20:13 34.221029 -117.904656 284 29900ft 459kts
24-Jun-20 20:14 34.255058 -118.053455 284 29535ft 459kts
24-Jun-20 20:15 34.288293 -118.196197 285 28569ft 453kts
24-Jun-20 20:16 34.324509 -118.341223 285 27567ft 447kts
24-Jun-20 20:17 34.359516 -118.480934 285 26588ft 440kts
24-Jun-20 20:18 34.394300 -118.622731 284 25489ft 431kts
24-Jun-20 20:19 34.425916 -118.753175 281 24227ft 392kts
24-Jun-20 20:20 34.419201 -118.872157 258 23946ft 342kts
24-Jun-20 20:21 34.399478 -118.982773 258 22897ft 332kts
24-Jun-20 20:22 34.380107 -119.094949 258 20227ft 353kts
24-Jun-20 20:23 34.361035 -119.210432 258 18465ft 344kts
24-Jun-20 20:24 34.342295 -119.320657 257 16247ft 328kts
24-Jun-20 20:25 34.324056 -119.424830 257 14004ft 306kts
24-Jun-20 20:26 34.306947 -119.523653 257 11664ft 298kts
24-Jun-20 20:27 34.291446 -119.622081 266 9198ft 297kts
24-Jun-20 20:28 34.294575 -119.720553 272 7056ft 287kts
24-Jun-20 20:29 34.298718 -119.814641 272 5335ft 264kts
24-Jun-20 20:30 34.302007 -119.898153 272 5003ft 245kts
24-Jun-20 20:31 34.305148 -119.979981 272 4646ft 240kts
24-Jun-20 20:32 34.307700 -120.060097 272 3438ft 228kts
24-Jun-20 20:33 34.339954 -120.105791 349 2977ft 189kts
24-Jun-20 20:35 34.392025 -120.112326 353 3007ft 185kts
24-Jun-20 20:36 34.423485 -120.071278 71 3029ft 184kts
24-Jun-20 20:37 34.424347 -120.009457 87 2475ft 175kts
24-Jun-20 20:38 34.425443 -119.953884 88 1613ft 155kts
24-Jun-20 20:39 34.426826 -119.901471 89 849ft 156kts
24-Jun-20 20:40 34.427667 -119.848973 89 25ft 144kts
24-Jun-20 20:41 34.427709 -119.835129 133 23ft 9kts
24-Jun-20 20:42 34.426762 -119.835726 264 23ft 15kts
24-Jun-20 20:43 34.425464 -119.837829 147 23ft 1kts
24-Jun-20 20:44 34.425156 -119.837341 118 23ft 0kts
24-Jun-20 20:45 34.425156 -119.837341 118 23ft 0kts

Navigation Log

Ident Type
Flight plan parsing failed, navigation log unavailable